Time;durP1;ratioP1;P1;durP2;ratioP2;P2;SDS_P1;SDS_P2;PMS_P1;PMS_P2;Temp;Humidity;BMP_temperature;BMP_pressure;BME280_temperature;BME280_humidity;BME280_pressure;Samples;Min_cycle;Max_cycle;Signal;HPM_P1;HPM_P2
2021/09/08 00:00:45;;;;;;;14.65;10.05;;;;;;;;;;6253512;28;20091;-73
2021/09/08 00:03:47;;;;;;;17.00;10.07;;;;;;;;;;6260034;28;20090;-73
2021/09/08 00:06:49;;;;;;;20.35;10.52;;;;;;;;;;6258425;28;20128;-72
2021/09/08 00:09:51;;;;;;;12.35;9.23;;;;;;;;;;6253257;28;20136;-74
2021/09/08 00:12:55;;;;;;;14.95;9.18;;;;;;;;;;6252257;28;20087;-73
2021/09/08 00:15:58;;;;;;;16.80;8.80;;;;;;;;;;6246587;28;20061;-71
2021/09/08 00:18:59;;;;;;;12.50;8.27;;;;;;;;;;6252563;28;20071;-73
2021/09/08 00:22:02;;;;;;;13.57;9.23;;;;;;;;;;6248065;28;20416;-73
2021/09/08 00:25:05;;;;;;;12.00;7.65;;;;;;;;;;6260382;28;20154;-74
2021/09/08 00:28:07;;;;;;;13.98;8.95;;;;;;;;;;6254756;28;20188;-72
2021/09/08 00:31:09;;;;;;;15.73;8.10;;;;;;;;;;6239453;28;20053;-72
2021/09/08 00:34:10;;;;;;;13.82;8.05;;;;;;;;;;6254766;28;20049;-73
2021/09/08 00:37:13;;;;;;;12.13;8.85;;;;;;;;;;6240993;28;20128;-76
2021/09/08 00:40:15;;;;;;;12.18;8.00;;;;;;;;;;6253065;28;20484;-75
2021/09/08 00:43:16;;;;;;;10.98;8.10;;;;;;;;;;6248830;28;20047;-72
2021/09/08 00:46:18;;;;;;;14.23;8.25;;;;;;;;;;6249712;28;20179;-72
2021/09/08 00:49:20;;;;;;;9.32;8.23;;;;;;;;;;6249054;28;20090;-71
2021/09/08 00:52:23;;;;;;;14.60;9.23;;;;;;;;;;6242116;28;20528;-74
2021/09/08 00:55:25;;;;;;;17.55;9.07;;;;;;;;;;6246422;28;20098;-74
2021/09/08 00:58:27;;;;;;;15.23;9.13;;;;;;;;;;6254378;28;20061;-69
2021/09/08 01:01:29;;;;;;;24.38;14.90;;;;;;;;;;6234978;28;20435;-72
2021/09/08 01:04:30;;;;;;;19.98;10.73;;;;;;;;;;6237903;28;20041;-72
2021/09/08 01:07:34;;;;;;;59.55;33.95;;;;;;;;;;6232351;28;20103;-70
2021/09/08 01:10:35;;;;;;;40.22;24.02;;;;;;;;;;6240450;28;20132;-71
2021/09/08 01:13:37;;;;;;;61.20;34.45;;;;;;;;;;6247462;28;20094;-70
2021/09/08 01:16:39;;;;;;;17.08;9.98;;;;;;;;;;6243154;28;20060;-74
2021/09/08 01:19:40;;;;;;;11.73;8.60;;;;;;;;;;6247565;28;20049;-73
2021/09/08 01:22:45;;;;;;;11.95;8.07;;;;;;;;;;6246566;28;20061;-74
2021/09/08 01:25:47;;;;;;;14.52;8.80;;;;;;;;;;6247313;28;20520;-74
2021/09/08 01:28:48;;;;;;;12.20;8.20;;;;;;;;;;6251707;28;20080;-72
2021/09/08 01:31:55;;;;;;;12.02;8.55;;;;;;;;;;6241573;28;20171;-73
2021/09/08 01:34:57;;;;;;;12.75;8.45;;;;;;;;;;6250149;28;20049;-76
2021/09/08 01:38:00;;;;;;;15.88;8.50;;;;;;;;;;6244002;28;20105;-74
2021/09/08 01:41:02;;;;;;;12.43;8.13;;;;;;;;;;6247992;28;20136;-72
2021/09/08 01:44:04;;;;;;;14.18;8.90;;;;;;;;;;6257160;28;20180;-76
2021/09/08 01:47:05;;;;;;;11.80;8.40;;;;;;;;;;6244411;28;20128;-72
2021/09/08 01:50:08;;;;;;;12.20;8.57;;;;;;;;;;6256576;28;20139;-78
2021/09/08 01:53:12;;;;;;;14.67;8.93;;;;;;;;;;6259426;28;20048;-73
2021/09/08 01:56:15;;;;;;;14.27;8.23;;;;;;;;;;6259880;28;20090;-70
2021/09/08 01:59:17;;;;;;;11.63;8.50;;;;;;;;;;6267768;28;20048;-74
2021/09/08 02:02:18;;;;;;;10.35;7.72;;;;;;;;;;6261108;28;20198;-72
2021/09/08 02:05:20;;;;;;;11.80;8.15;;;;;;;;;;6258656;28;20449;-78
2021/09/08 02:08:23;;;;;;;9.80;8.30;;;;;;;;;;6265481;28;20116;-72
2021/09/08 02:11:25;;;;;;;15.02;8.70;;;;;;;;;;6249114;28;20140;-73
2021/09/08 02:14:26;;;;;;;11.02;8.75;;;;;;;;;;6255609;28;20073;-72
2021/09/08 02:17:28;;;;;;;9.73;7.63;;;;;;;;;;6242956;28;20048;-73
2021/09/08 02:20:29;;;;;;;11.10;7.85;;;;;;;;;;6248491;28;20449;-77
2021/09/08 02:23:32;;;;;;;16.85;8.13;;;;;;;;;;6257372;28;20745;-72
2021/09/08 02:26:34;;;;;;;13.82;8.32;;;;;;;;;;6251601;28;20562;-74
2021/09/08 02:29:36;;;;;;;11.15;7.28;;;;;;;;;;6265291;28;20670;-72
2021/09/08 02:32:38;;;;;;;10.13;7.68;;;;;;;;;;6245365;28;20045;-74
2021/09/08 02:35:39;;;;;;;10.00;7.15;;;;;;;;;;6248531;28;20574;-72
2021/09/08 02:38:42;;;;;;;10.27;8.30;;;;;;;;;;6259854;28;20137;-73
2021/09/08 02:41:44;;;;;;;10.07;7.53;;;;;;;;;;6245701;28;20542;-72
2021/09/08 02:44:46;;;;;;;11.82;8.13;;;;;;;;;;6257140;28;20255;-71
2021/09/08 02:47:47;;;;;;;9.85;8.13;;;;;;;;;;6239010;28;20128;-74
2021/09/08 02:50:49;;;;;;;12.40;7.75;;;;;;;;;;6250520;28;20053;-71
2021/09/08 02:53:52;;;;;;;12.52;8.38;;;;;;;;;;6258833;28;20132;-71
2021/09/08 02:56:53;;;;;;;11.88;7.57;;;;;;;;;;6260021;28;20212;-72
2021/09/08 02:59:55;;;;;;;12.52;7.22;;;;;;;;;;6262486;28;20052;-71
2021/09/08 03:02:56;;;;;;;9.40;7.28;;;;;;;;;;6258226;28;20105;-70
2021/09/08 03:05:58;;;;;;;12.20;8.57;;;;;;;;;;6262639;28;20132;-71
2021/09/08 03:09:01;;;;;;;11.32;7.75;;;;;;;;;;6259058;28;20175;-70
2021/09/08 03:12:03;;;;;;;11.25;7.97;;;;;;;;;;6254617;28;20428;-71
2021/09/08 03:15:05;;;;;;;11.82;7.60;;;;;;;;;;6263493;28;20083;-73
2021/09/08 03:18:07;;;;;;;13.35;8.50;;;;;;;;;;6249073;28;20054;-71
2021/09/08 03:21:09;;;;;;;13.43;7.80;;;;;;;;;;6258602;28;20069;-71
2021/09/08 03:24:12;;;;;;;14.10;8.00;;;;;;;;;;6274951;28;20732;-70
2021/09/08 03:27:13;;;;;;;12.48;7.28;;;;;;;;;;6258022;28;20133;-70
2021/09/08 03:30:15;;;;;;;10.57;7.57;;;;;;;;;;6267072;28;20127;-74
2021/09/08 03:33:17;;;;;;;14.85;7.70;;;;;;;;;;6256537;28;20200;-71
2021/09/08 03:36:18;;;;;;;10.73;7.85;;;;;;;;;;6249844;28;20057;-70
2021/09/08 03:39:21;;;;;;;12.57;8.13;;;;;;;;;;6253456;28;20130;-73
2021/09/08 03:42:24;;;;;;;12.07;7.75;;;;;;;;;;6249610;28;20132;-71
2021/09/08 03:45:25;;;;;;;12.90;7.88;;;;;;;;;;6245725;28;20056;-72
2021/09/08 03:48:27;;;;;;;12.57;7.65;;;;;;;;;;6250091;28;20094;-70
2021/09/08 03:51:29;;;;;;;10.23;7.70;;;;;;;;;;6246166;28;20124;-70
2021/09/08 03:54:31;;;;;;;13.38;8.40;;;;;;;;;;6252971;28;20098;-71
2021/09/08 03:57:33;;;;;;;13.15;8.35;;;;;;;;;;6242079;28;20057;-70
2021/09/08 04:00:35;;;;;;;14.30;9.13;;;;;;;;;;6246335;28;20180;-74
2021/09/08 04:03:36;;;;;;;10.27;8.18;;;;;;;;;;6248434;28;20052;-72
2021/09/08 04:06:38;;;;;;;15.05;8.27;;;;;;;;;;6246099;28;20101;-71
2021/09/08 04:09:41;;;;;;;11.95;7.80;;;;;;;;;;6250623;28;20109;-71
2021/09/08 04:12:43;;;;;;;16.25;9.70;;;;;;;;;;6249282;28;20044;-71
2021/09/08 04:15:44;;;;;;;14.02;7.93;;;;;;;;;;6247397;28;20053;-75
2021/09/08 04:18:46;;;;;;;12.35;9.57;;;;;;;;;;6251985;28;20064;-73
2021/09/08 04:21:48;;;;;;;14.95;8.68;;;;;;;;;;6248368;28;20177;-70
2021/09/08 04:24:50;;;;;;;12.68;8.45;;;;;;;;;;6254320;28;20123;-71
2021/09/08 04:27:52;;;;;;;13.05;9.07;;;;;;;;;;6245882;28;20143;-71
2021/09/08 04:30:54;;;;;;;13.10;8.52;;;;;;;;;;6250531;28;20125;-71
2021/09/08 04:33:55;;;;;;;13.10;9.23;;;;;;;;;;6252114;28;20049;-71
2021/09/08 04:36:57;;;;;;;13.43;9.40;;;;;;;;;;6244864;28;20143;-71
2021/09/08 04:40:00;;;;;;;12.15;9.38;;;;;;;;;;6256137;28;20055;-71
2021/09/08 04:43:02;;;;;;;13.02;9.05;;;;;;;;;;6245011;28;20131;-74
2021/09/08 04:46:04;;;;;;;17.02;10.20;;;;;;;;;;6245855;28;20049;-75
2021/09/08 04:49:06;;;;;;;15.25;10.23;;;;;;;;;;6249724;28;20604;-70
2021/09/08 04:52:07;;;;;;;14.23;9.65;;;;;;;;;;6245439;28;20088;-71
2021/09/08 04:55:11;;;;;;;14.77;10.77;;;;;;;;;;6255246;28;20099;-75
2021/09/08 04:58:12;;;;;;;;;;;;;;;;;;6249600;28;20104;-71
2021/09/08 05:01:14;;;;;;;15.73;10.43;;;;;;;;;;6246684;28;19940;-72
2021/09/08 05:04:15;;;;;;;15.18;10.90;;;;;;;;;;6253327;28;20116;-70
2021/09/08 05:07:17;;;;;;;18.05;10.65;;;;;;;;;;6246641;28;20133;-72
2021/09/08 05:10:20;;;;;;;19.25;10.98;;;;;;;;;;6252225;28;20045;-74
2021/09/08 05:13:22;;;;;;;14.88;10.00;;;;;;;;;;6259009;28;20108;-75
2021/09/08 05:16:24;;;;;;;15.10;10.07;;;;;;;;;;6251869;28;20717;-73
2021/09/08 05:19:26;;;;;;;18.75;11.48;;;;;;;;;;6255516;28;20053;-72
2021/09/08 05:22:27;;;;;;;20.33;11.15;;;;;;;;;;6257341;28;20057;-70
2021/09/08 05:25:30;;;;;;;20.65;11.50;;;;;;;;;;6261228;28;20097;-74
2021/09/08 05:28:32;;;;;;;15.60;10.52;;;;;;;;;;6258516;28;20139;-70
2021/09/08 05:31:34;;;;;;;17.77;11.10;;;;;;;;;;6257593;28;20130;-73
2021/09/08 05:34:36;;;;;;;17.73;10.57;;;;;;;;;;6264375;28;20109;-71
2021/09/08 05:37:47;;;;;;;15.40;10.68;;;;;;;;;;6254619;28;20059;-74
2021/09/08 05:40:50;;;;;;;19.73;10.75;;;;;;;;;;6251040;28;20052;-71
2021/09/08 05:43:52;;;;;;;;;;;;;;;;;;6264588;28;20393;-76
2021/09/08 05:46:53;;;;;;;17.38;10.48;;;;;;;;;;6257485;28;19920;-71
2021/09/08 05:49:55;;;;;;;16.27;10.52;;;;;;;;;;6265808;28;21438;-76
2021/09/08 05:52:57;;;;;;;18.25;9.25;;;;;;;;;;6260136;28;20053;-70
2021/09/08 05:56:00;;;;;;;17.30;10.43;;;;;;;;;;6258171;28;20199;-70
2021/09/08 05:59:02;;;;;;;15.88;10.52;;;;;;;;;;6262833;28;20563;-74
2021/09/08 06:02:04;;;;;;;15.68;10.45;;;;;;;;;;6266331;28;20174;-71
2021/09/08 06:05:06;;;;;;;17.17;10.25;;;;;;;;;;6256479;28;20083;-80
2021/09/08 06:08:08;;;;;;;13.82;9.57;;;;;;;;;;6278023;28;20198;-71
2021/09/08 06:11:11;;;;;;;19.63;9.90;;;;;;;;;;6254318;28;20481;-71
2021/09/08 06:14:13;;;;;;;14.02;9.55;;;;;;;;;;6261947;28;20506;-71
2021/09/08 06:17:14;;;;;;;12.02;9.25;;;;;;;;;;6246212;28;20324;-73
2021/09/08 06:20:16;;;;;;;14.80;9.38;;;;;;;;;;6256295;28;20037;-73
2021/09/08 06:23:17;;;;;;;13.95;9.55;;;;;;;;;;6253067;28;20045;-72
2021/09/08 06:26:20;;;;;;;14.50;9.15;;;;;;;;;;6252776;28;20084;-70
2021/09/08 06:29:22;;;;;;;14.13;8.95;;;;;;;;;;6259869;28;20068;-73
2021/09/08 06:32:24;;;;;;;12.80;8.82;;;;;;;;;;6248816;28;20598;-72
2021/09/08 06:35:25;;;;;;;15.50;8.88;;;;;;;;;;6249950;28;20052;-75
2021/09/08 06:38:27;;;;;;;14.15;8.63;;;;;;;;;;6258398;28;20108;-70
2021/09/08 06:41:30;;;;;;;12.57;8.50;;;;;;;;;;6258504;28;20042;-71
2021/09/08 06:44:32;;;;;;;17.17;8.25;;;;;;;;;;6262770;28;20696;-70
2021/09/08 06:47:33;;;;;;;12.70;8.63;;;;;;;;;;6249702;28;20063;-70
2021/09/08 06:50:35;;;;;;;16.75;8.20;;;;;;;;;;6254859;28;20124;-72
2021/09/08 06:53:37;;;;;;;11.10;8.45;;;;;;;;;;6259011;28;20204;-69
2021/09/08 06:56:40;;;;;;;14.80;8.55;;;;;;;;;;6256654;28;20059;-69
2021/09/08 06:59:41;;;;;;;;;;;;;;;;;;6262589;28;20092;-70
2021/09/08 07:02:43;;;;;;;16.00;9.20;;;;;;;;;;6250980;28;19992;-71
2021/09/08 07:05:45;;;;;;;11.70;9.20;;;;;;;;;;6250969;28;20087;-69
2021/09/08 07:08:46;;;;;;;15.07;8.95;;;;;;;;;;6259887;28;20053;-70
2021/09/08 07:11:55;;;;;;;14.05;8.48;;;;;;;;;;6251304;28;20092;-69
2021/09/08 07:15:03;;;;;;;11.15;8.02;;;;;;;;;;6255846;28;20046;-69
2021/09/08 07:18:11;;;;;;;12.80;8.48;;;;;;;;;;6259094;28;20132;-69
2021/09/08 07:21:13;;;;;;;9.80;8.23;;;;;;;;;;6310516;28;20052;-70
2021/09/08 07:24:21;;;;;;;12.77;8.27;;;;;;;;;;6280390;28;20161;-68
2021/09/08 07:27:30;;;;;;;10.18;8.25;;;;;;;;;;6309276;28;20101;-71
2021/09/08 07:30:38;;;;;;;9.93;8.32;;;;;;;;;;6309266;28;20045;-69
2021/09/08 07:33:40;;;;;;;12.45;8.00;;;;;;;;;;6270656;28;20194;-69
2021/09/08 07:36:42;;;;;;;15.07;8.10;;;;;;;;;;6299354;28;20045;-77
2021/09/08 07:39:44;;;;;;;12.10;7.88;;;;;;;;;;6303435;28;20139;-69
2021/09/08 07:42:47;;;;;;;10.32;7.40;;;;;;;;;;6300604;28;20044;-70
2021/09/08 07:45:49;;;;;;;9.75;7.55;;;;;;;;;;6305004;28;20167;-68
2021/09/08 07:48:50;;;;;;;12.30;7.78;;;;;;;;;;6296784;28;20051;-68
2021/09/08 07:51:52;;;;;;;11.55;8.05;;;;;;;;;;6301423;28;20133;-69
2021/09/08 07:54:55;;;;;;;14.25;8.20;;;;;;;;;;6308150;28;20117;-69
2021/09/08 07:57:58;;;;;;;12.60;7.85;;;;;;;;;;6307736;28;20044;-69
2021/09/08 08:01:00;;;;;;;12.18;8.95;;;;;;;;;;6307171;28;20135;-69
2021/09/08 08:04:01;;;;;;;14.73;9.40;;;;;;;;;;6316089;28;20099;-73
2021/09/08 08:07:03;;;;;;;13.70;9.32;;;;;;;;;;6308972;28;20048;-72
2021/09/08 08:10:07;;;;;;;13.40;8.95;;;;;;;;;;6320064;28;20048;-78
2021/09/08 08:13:10;;;;;;;16.42;8.95;;;;;;;;;;6317657;28;20049;-73
2021/09/08 08:16:11;;;;;;;11.50;8.65;;;;;;;;;;6316445;28;20040;-70
2021/09/08 08:19:13;;;;;;;14.40;9.15;;;;;;;;;;6317391;28;20064;-71
2021/09/08 08:22:14;;;;;;;15.60;8.13;;;;;;;;;;6323597;28;20095;-70
2021/09/08 08:25:18;;;;;;;12.60;8.82;;;;;;;;;;6326687;28;20064;-75
2021/09/08 08:28:21;;;;;;;15.45;8.48;;;;;;;;;;6324975;28;20078;-72
2021/09/08 08:31:23;;;;;;;11.80;7.68;;;;;;;;;;6316189;28;20520;-73
2021/09/08 08:34:24;;;;;;;11.80;8.32;;;;;;;;;;6320204;28;20070;-71
2021/09/08 08:37:26;;;;;;;15.27;8.82;;;;;;;;;;6308047;28;20063;-75
2021/09/08 08:40:31;;;;;;;12.70;8.00;;;;;;;;;;6313860;28;20717;-71
2021/09/08 08:43:34;;;;;;;11.05;8.18;;;;;;;;;;6314334;28;20055;-70
2021/09/08 08:46:35;;;;;;;;;;;;;;;;;;6306437;28;20471;-75
2021/09/08 08:49:37;;;;;;;9.80;7.88;;;;;;;;;;6309971;28;20042;-69
2021/09/08 08:52:39;;;;;;;13.10;7.80;;;;;;;;;;6311072;28;20055;-69
2021/09/08 08:55:40;;;;;;;11.93;8.13;;;;;;;;;;6306682;28;20101;-70
2021/09/08 08:58:43;;;;;;;12.20;7.00;;;;;;;;;;6311484;28;20067;-68
2021/09/08 09:01:44;;;;;;;;;;;;;;;;;;6296168;28;20143;-69
2021/09/08 09:04:46;;;;;;;9.75;6.45;;;;;;;;;;6308103;28;20062;-72
2021/09/08 09:07:50;;;;;;;13.43;6.40;;;;;;;;;;6302269;28;20166;-74
2021/09/08 09:10:51;;;;;;;10.40;6.00;;;;;;;;;;6301589;28;20587;-69
2021/09/08 09:13:54;;;;;;;9.75;6.40;;;;;;;;;;6310451;28;20077;-73
2021/09/08 09:16:56;;;;;;;10.65;6.28;;;;;;;;;;6303504;28;20177;-69
2021/09/08 09:19:58;;;;;;;10.95;6.35;;;;;;;;;;6307269;28;20105;-73
2021/09/08 09:23:01;;;;;;;9.73;6.22;;;;;;;;;;6301257;28;20487;-69
2021/09/08 09:26:06;;;;;;;8.75;6.07;;;;;;;;;;6302828;28;20902;-70
2021/09/08 09:29:11;;;;;;;9.82;6.22;;;;;;;;;;6307775;28;20136;-74
2021/09/08 09:32:13;;;;;;;9.20;6.72;;;;;;;;;;6297175;28;20502;-72
2021/09/08 09:35:16;;;;;;;8.88;6.80;;;;;;;;;;6301019;28;20158;-74
2021/09/08 09:38:18;;;;;;;10.07;7.00;;;;;;;;;;6304434;28;20131;-70
2021/09/08 09:41:24;;;;;;;11.33;6.87;;;;;;;;;;6295121;28;20547;-72
2021/09/08 09:44:30;;;;;;;10.20;7.20;;;;;;;;;;6304653;28;21040;-71
2021/09/08 09:47:34;;;;;;;12.27;8.18;;;;;;;;;;6298652;28;20184;-74
2021/09/08 09:50:37;;;;;;;7.70;6.50;;;;;;;;;;6295843;28;20044;-70
2021/09/08 09:53:39;;;;;;;12.60;7.25;;;;;;;;;;6302725;28;20041;-72
2021/09/08 09:56:41;;;;;;;10.73;6.88;;;;;;;;;;6301219;28;20089;-70
2021/09/08 09:59:45;;;;;;;11.50;7.22;;;;;;;;;;6306341;28;20404;-70
2021/09/08 10:02:47;;;;;;;12.40;7.03;;;;;;;;;;6298871;28;20369;-70
2021/09/08 10:05:49;;;;;;;10.93;7.18;;;;;;;;;;6302925;28;20127;-70
2021/09/08 10:08:55;;;;;;;9.63;6.70;;;;;;;;;;6310755;28;20036;-71
2021/09/08 10:11:59;;;;;;;11.32;7.07;;;;;;;;;;6299632;28;20066;-71
2021/09/08 10:15:03;;;;;;;9.77;7.70;;;;;;;;;;6308616;28;20135;-71
2021/09/08 10:18:06;;;;;;;11.45;6.53;;;;;;;;;;6298512;28;20048;-71
2021/09/08 10:21:11;;;;;;;8.20;6.78;;;;;;;;;;6298997;28;20052;-71
2021/09/08 10:24:12;;;;;;;7.95;6.10;;;;;;;;;;6306386;28;20063;-71
2021/09/08 10:27:23;;;;;;;9.25;6.65;;;;;;;;;;6301822;28;20053;-72
2021/09/08 10:30:27;;;;;;;11.23;6.43;;;;;;;;;;6309644;28;20460;-72
2021/09/08 10:33:29;;;;;;;13.65;6.38;;;;;;;;;;6299499;28;20072;-70
2021/09/08 10:36:31;;;;;;;8.98;6.70;;;;;;;;;;6299785;28;20147;-70
2021/09/08 10:39:32;;;;;;;7.60;6.15;;;;;;;;;;6304945;28;20083;-70
2021/09/08 10:42:51;;;;;;;;;;;;;;;;;;6300291;28;20186;-70
2021/09/08 10:45:55;;;;;;;12.45;7.22;;;;;;;;;;6290550;28;19929;-71
2021/09/08 10:48:57;;;;;;;17.77;6.80;;;;;;;;;;6294868;28;20115;-75
2021/09/08 10:51:58;;;;;;;;;;;;;;;;;;6296622;28;20077;-71
2021/09/08 10:55:23;;;;;;;12.48;8.40;;;;;;;;;;6301829;28;19920;-70
2021/09/08 10:58:25;;;;;;;11.88;6.50;;;;;;;;;;6298562;28;20060;-71
2021/09/08 11:01:28;;;;;;;11.30;6.88;;;;;;;;;;6289392;28;20144;-70
2021/09/08 11:04:30;;;;;;;12.07;7.47;;;;;;;;;;6295195;28;20501;-70
2021/09/08 11:07:31;;;;;;;8.45;6.28;;;;;;;;;;6290465;28;20062;-71
2021/09/08 11:10:34;;;;;;;9.05;6.60;;;;;;;;;;6293986;28;20112;-72
2021/09/08 11:13:36;;;;;;;11.80;6.32;;;;;;;;;;6299328;28;20189;-70
2021/09/08 11:16:38;;;;;;;9.27;6.85;;;;;;;;;;6289573;28;20181;-70
2021/09/08 11:19:40;;;;;;;9.55;6.50;;;;;;;;;;6298620;28;20186;-70
2021/09/08 11:22:41;;;;;;;;;;;;;;;;;;6293085;28;20143;-71
2021/09/08 11:25:44;;;;;;;13.88;6.57;;;;;;;;;;6292247;28;19920;-71
2021/09/08 11:28:46;;;;;;;9.55;7.10;;;;;;;;;;6303069;28;20032;-71
2021/09/08 11:31:49;;;;;;;;;;;;;;;;;;6291937;28;20126;-70
2021/09/08 11:34:50;;;;;;;13.35;6.50;;;;;;;;;;6299624;28;19973;-71
2021/09/08 11:37:52;;;;;;;13.82;6.53;;;;;;;;;;6296012;28;20083;-71
2021/09/08 11:40:55;;;;;;;8.32;5.90;;;;;;;;;;6297192;28;20096;-71
2021/09/08 11:44:02;;;;;;;11.00;7.22;;;;;;;;;;6298697;28;20048;-71
2021/09/08 11:47:15;;;;;;;7.47;6.50;;;;;;;;;;6296155;28;20143;-72
2021/09/08 11:50:16;;;;;;;9.70;5.78;;;;;;;;;;6292293;28;20032;-76
2021/09/08 11:53:25;;;;;;;10.23;6.25;;;;;;;;;;6292531;28;20488;-70
2021/09/08 11:56:27;;;;;;;8.43;5.47;;;;;;;;;;6299114;28;20173;-71
2021/09/08 11:59:30;;;;;;;7.53;5.82;;;;;;;;;;6302320;28;20126;-73
2021/09/08 12:02:33;;;;;;;7.78;5.80;;;;;;;;;;6287001;28;20772;-69
2021/09/08 12:05:35;;;;;;;12.23;5.53;;;;;;;;;;6292864;28;20081;-70
2021/09/08 12:08:37;;;;;;;8.63;5.28;;;;;;;;;;6298037;28;20143;-70
2021/09/08 12:11:45;;;;;;;10.25;5.70;;;;;;;;;;6297653;28;20047;-70
2021/09/08 12:14:48;;;;;;;7.60;5.47;;;;;;;;;;6296940;28;20145;-72
2021/09/08 12:17:51;;;;;;;11.13;6.10;;;;;;;;;;6293396;28;20039;-72
2021/09/08 12:20:53;;;;;;;10.45;5.85;;;;;;;;;;6291301;28;20133;-70
2021/09/08 12:23:55;;;;;;;5.85;5.22;;;;;;;;;;6296533;28;20093;-71
2021/09/08 12:26:58;;;;;;;10.25;5.60;;;;;;;;;;6300215;28;20056;-70
2021/09/08 12:30:01;;;;;;;7.32;5.30;;;;;;;;;;6305302;28;20502;-71
2021/09/08 12:33:05;;;;;;;12.45;5.68;;;;;;;;;;6291368;28;20126;-69
2021/09/08 12:36:15;;;;;;;10.98;5.70;;;;;;;;;;6295905;28;20074;-68
2021/09/08 12:39:19;;;;;;;8.67;5.97;;;;;;;;;;6303328;28;20068;-70
2021/09/08 12:42:22;;;;;;;7.38;5.90;;;;;;;;;;6301919;28;20123;-71
2021/09/08 12:45:23;;;;;;;8.70;4.80;;;;;;;;;;6304402;28;20142;-71
2021/09/08 12:48:26;;;;;;;;;;;;;;;;;;6310813;28;20056;-72
2021/09/08 12:51:28;;;;;;;8.40;4.90;;;;;;;;;;6318547;28;19960;-71
2021/09/08 12:54:30;;;;;;;5.78;5.18;;;;;;;;;;6331032;28;20066;-70
2021/09/08 12:57:32;;;;;;;10.13;6.18;;;;;;;;;;6320877;28;20064;-69
2021/09/08 13:00:34;;;;;;;8.55;5.93;;;;;;;;;;6312087;28;20040;-71
2021/09/08 13:03:37;;;;;;;12.55;5.72;;;;;;;;;;6316467;28;20056;-72
2021/09/08 13:06:39;;;;;;;10.63;5.57;;;;;;;;;;6320127;28;20044;-69
2021/09/08 13:09:40;;;;;;;;;;;;;;;;;;6323330;28;20102;-68
2021/09/08 13:12:41;;;;;;;11.95;5.55;;;;;;;;;;6318728;28;20415;-68
2021/09/08 13:15:44;;;;;;;11.02;4.90;;;;;;;;;;6316527;28;20136;-72
2021/09/08 13:18:47;;;;;;;7.68;5.20;;;;;;;;;;6313148;28;20048;-68
2021/09/08 13:21:48;;;;;;;8.35;5.35;;;;;;;;;;6311179;28;20041;-69
2021/09/08 13:24:50;;;;;;;9.77;4.82;;;;;;;;;;6309095;28;20119;-68
2021/09/08 13:27:51;;;;;;;;;;;;;;;;;;6300812;28;20111;-69
2021/09/08 13:30:53;;;;;;;6.30;4.88;;;;;;;;;;6306550;28;19959;-69
2021/09/08 13:33:56;;;;;;;;;;;;;;;;;;6307224;28;20514;-68
2021/09/08 13:36:57;;;;;;;7.80;4.95;;;;;;;;;;6300731;28;19928;-68
2021/09/08 13:39:59;;;;;;;;;;;;;;;;;;6306353;28;20079;-69
2021/09/08 13:43:00;;;;;;;9.73;4.78;;;;;;;;;;6302031;28;20058;-69
2021/09/08 13:46:02;;;;;;;5.40;4.90;;;;;;;;;;6299457;28;20147;-72
2021/09/08 13:49:05;;;;;;;5.20;4.47;;;;;;;;;;6305132;28;20071;-69
2021/09/08 13:52:07;;;;;;;9.48;5.03;;;;;;;;;;6301874;28;20127;-69
2021/09/08 13:55:09;;;;;;;7.50;5.13;;;;;;;;;;6308147;28;20073;-70
2021/09/08 13:58:10;;;;;;;9.00;4.53;;;;;;;;;;6303482;28;20097;-69
2021/09/08 14:01:12;;;;;;;7.13;4.60;;;;;;;;;;6302378;28;20070;-69
2021/09/08 14:04:15;;;;;;;5.82;5.05;;;;;;;;;;6306832;28;20044;-70
2021/09/08 14:07:18;;;;;;;7.10;5.13;;;;;;;;;;6297494;28;20128;-68
2021/09/08 14:10:20;;;;;;;7.28;5.10;;;;;;;;;;6305039;28;20051;-73
2021/09/08 14:13:22;;;;;;;11.65;4.90;;;;;;;;;;6303568;28;20497;-70
2021/09/08 14:16:23;;;;;;;10.27;5.00;;;;;;;;;;6300870;28;20055;-69
2021/09/08 14:19:26;;;;;;;10.23;5.03;;;;;;;;;;6304443;28;20052;-69
2021/09/08 14:22:28;;;;;;;8.18;4.53;;;;;;;;;;6297641;28;20051;-70
2021/09/08 14:25:30;;;;;;;5.80;4.90;;;;;;;;;;6301401;28;20195;-74
2021/09/08 14:28:31;;;;;;;5.53;4.28;;;;;;;;;;6308173;28;20509;-70
2021/09/08 14:31:34;;;;;;;6.05;5.13;;;;;;;;;;6306114;28;20056;-72
2021/09/08 14:34:37;;;;;;;9.82;5.03;;;;;;;;;;6301718;28;20048;-68
2021/09/08 14:37:38;;;;;;;12.55;4.90;;;;;;;;;;6289060;28;20040;-68
2021/09/08 14:40:40;;;;;;;7.47;4.78;;;;;;;;;;6295553;28;20186;-69
2021/09/08 14:43:42;;;;;;;7.45;5.00;;;;;;;;;;6299047;28;20158;-68
2021/09/08 14:46:45;;;;;;;8.88;4.93;;;;;;;;;;6296366;28;20048;-68
2021/09/08 14:49:48;;;;;;;5.85;4.60;;;;;;;;;;6301734;28;20083;-69
2021/09/08 14:52:49;;;;;;;8.05;4.68;;;;;;;;;;6295237;28;20129;-68
2021/09/08 14:55:51;;;;;;;8.75;4.40;;;;;;;;;;6297770;28;20120;-69
2021/09/08 14:58:52;;;;;;;8.93;5.30;;;;;;;;;;6307063;28;20254;-68
2021/09/08 15:01:55;;;;;;;8.32;5.15;;;;;;;;;;6291843;28;20553;-68
2021/09/08 15:04:58;;;;;;;10.02;4.97;;;;;;;;;;6294845;28;20146;-72
2021/09/08 15:08:00;;;;;;;11.90;5.05;;;;;;;;;;6297024;28;20499;-68
2021/09/08 15:11:02;;;;;;;5.97;4.40;;;;;;;;;;6296119;28;20048;-69
2021/09/08 15:14:03;;;;;;;8.40;4.85;;;;;;;;;;6303068;28;20048;-68
2021/09/08 15:17:05;;;;;;;7.82;4.97;;;;;;;;;;6292989;28;20186;-71
2021/09/08 15:20:10;;;;;;;8.85;4.80;;;;;;;;;;6298948;28;20235;-70
2021/09/08 15:23:11;;;;;;;9.50;4.93;;;;;;;;;;6297871;28;20131;-70
2021/09/08 15:26:13;;;;;;;9.93;4.75;;;;;;;;;;6298998;28;20165;-69
2021/09/08 15:29:15;;;;;;;9.32;5.30;;;;;;;;;;6301380;28;20999;-69
2021/09/08 15:32:16;;;;;;;8.23;4.82;;;;;;;;;;6289965;28;20092;-70
2021/09/08 15:35:19;;;;;;;6.88;5.10;;;;;;;;;;6293055;28;20044;-73
2021/09/08 15:38:21;;;;;;;15.23;5.38;;;;;;;;;;6298717;28;20143;-67
2021/09/08 15:41:23;;;;;;;12.13;5.43;;;;;;;;;;6293137;28;20051;-67
2021/09/08 15:44:24;;;;;;;7.03;4.60;;;;;;;;;;6299566;28;20792;-68
2021/09/08 15:47:26;;;;;;;6.70;4.85;;;;;;;;;;6287295;28;20083;-67
2021/09/08 15:50:29;;;;;;;6.38;4.80;;;;;;;;;;6291048;28;21008;-68
2021/09/08 15:53:31;;;;;;;6.50;4.60;;;;;;;;;;6298424;28;20127;-68
2021/09/08 15:56:32;;;;;;;8.20;4.75;;;;;;;;;;6294057;28;20126;-69
2021/09/08 15:59:34;;;;;;;8.35;5.00;;;;;;;;;;6298362;28;20186;-68
2021/09/08 16:02:35;;;;;;;14.48;5.15;;;;;;;;;;6276710;28;20109;-68
2021/09/08 16:05:38;;;;;;;8.38;5.28;;;;;;;;;;6289134;28;20073;-68
2021/09/08 16:08:40;;;;;;;7.25;4.60;;;;;;;;;;6298048;28;20079;-67
2021/09/08 16:11:44;;;;;;;6.55;5.15;;;;;;;;;;6290760;28;20499;-68
2021/09/08 16:14:45;;;;;;;10.48;5.20;;;;;;;;;;6302483;28;20391;-68
2021/09/08 16:17:47;;;;;;;6.20;4.25;;;;;;;;;;6284510;28;20083;-67
2021/09/08 16:20:50;;;;;;;8.03;4.50;;;;;;;;;;6294533;28;20082;-68
2021/09/08 16:23:51;;;;;;;8.77;4.80;;;;;;;;;;6300891;28;20052;-68
2021/09/08 16:26:53;;;;;;;7.25;4.95;;;;;;;;;;6298266;28;20721;-67
2021/09/08 16:29:55;;;;;;;7.77;4.73;;;;;;;;;;6305574;28;20082;-67
2021/09/08 16:32:58;;;;;;;13.30;4.85;;;;;;;;;;6290207;28;20075;-67
2021/09/08 16:36:02;;;;;;;6.80;4.55;;;;;;;;;;6298114;28;20535;-67
2021/09/08 16:39:03;;;;;;;7.47;5.05;;;;;;;;;;6302326;28;20059;-68
2021/09/08 16:42:06;;;;;;;14.87;4.80;;;;;;;;;;6298968;28;20079;-67
2021/09/08 16:45:08;;;;;;;9.88;5.28;;;;;;;;;;6293599;28;20048;-68
2021/09/08 16:48:10;;;;;;;11.52;4.78;;;;;;;;;;6300686;28;20129;-68
2021/09/08 16:51:13;;;;;;;6.65;5.20;;;;;;;;;;6305009;28;20173;-67
2021/09/08 16:54:14;;;;;;;8.38;4.97;;;;;;;;;;6314688;28;20517;-67
2021/09/08 16:57:16;;;;;;;10.60;5.13;;;;;;;;;;6307144;28;20521;-67
2021/09/08 17:00:18;;;;;;;10.50;5.55;;;;;;;;;;6302166;28;20044;-68
2021/09/08 17:03:19;;;;;;;9.85;5.47;;;;;;;;;;6293945;28;20036;-67
2021/09/08 17:06:23;;;;;;;14.52;5.50;;;;;;;;;;6294241;28;20063;-67
2021/09/08 17:09:24;;;;;;;11.57;5.18;;;;;;;;;;6301183;28;20048;-67
2021/09/08 17:12:26;;;;;;;9.30;5.00;;;;;;;;;;6295714;28;20230;-67
2021/09/08 17:15:27;;;;;;;6.93;5.20;;;;;;;;;;6297526;28;20183;-68
2021/09/08 17:18:29;;;;;;;8.85;5.07;;;;;;;;;;6294455;28;20135;-67
2021/09/08 17:21:32;;;;;;;7.75;5.22;;;;;;;;;;6292446;28;20511;-68
2021/09/08 17:24:34;;;;;;;11.70;4.55;;;;;;;;;;6302080;28;20133;-67
2021/09/08 17:27:37;;;;;;;14.38;5.22;;;;;;;;;;6296496;28;20065;-68
2021/09/08 17:30:39;;;;;;;8.85;4.85;;;;;;;;;;6299437;28;20188;-68
2021/09/08 17:33:40;;;;;;;11.73;5.60;;;;;;;;;;6298986;28;20040;-69
2021/09/08 17:36:43;;;;;;;8.80;5.13;;;;;;;;;;6295873;28;20044;-68
2021/09/08 17:39:45;;;;;;;6.60;4.85;;;;;;;;;;6304714;28;20105;-68
2021/09/08 17:42:48;;;;;;;6.55;4.82;;;;;;;;;;6301030;28;20048;-69
2021/09/08 17:45:50;;;;;;;9.50;4.75;;;;;;;;;;6295800;28;21233;-69
2021/09/08 17:48:51;;;;;;;7.57;4.97;;;;;;;;;;6300895;28;20194;-68
2021/09/08 17:51:54;;;;;;;8.52;5.30;;;;;;;;;;6300302;28;20067;-68
2021/09/08 17:54:56;;;;;;;;;;;;;;;;;;6305795;28;20036;-68
2021/09/08 17:57:58;;;;;;;11.90;5.03;;;;;;;;;;6297377;28;19991;-68
2021/09/08 18:01:01;;;;;;;9.20;5.13;;;;;;;;;;6308307;28;20138;-68
2021/09/08 18:04:03;;;;;;;;;;;;;;;;;;6300140;28;20067;-68
2021/09/08 18:07:06;;;;;;;6.72;5.18;;;;;;;;;;6299634;28;19920;-68